Terminal Aerodrome Forecast
Issued by NWS Tulsa, OK

Home | Current Version | Previous Version | Text Only | Print | Product List | Glossary On
Versions: 1 2 3 4 5 6 7 8 9 10 11 12 13 14 15 16 17 18
000
FTUS44 KTSA 192300
TAFFSM
TAF
KFSM 192337Z 2000/2024 06004KT 3SM BR OVC010
     FM200900 00000KT 2SM BR OVC008
     FM201600 VRB03KT 4SM BR OVC012
     FM202000 15005KT P6SM BKN018=

USA.gov is the U.S. government's official web portal to all federal, state and local government web resources and services.